sensor_id;sensor_type;location;lat;lon;timestamp;temperature;humidity
36548;DHT22;22551;52.206;4.856;2023-09-08T00:02:46;19.70;99.90
36548;DHT22;22551;52.206;4.856;2023-09-08T00:07:48;19.70;99.90
36548;DHT22;22551;52.206;4.856;2023-09-08T00:12:51;19.60;99.90
36548;DHT22;22551;52.206;4.856;2023-09-08T00:17:54;19.60;99.90
36548;DHT22;22551;52.206;4.856;2023-09-08T00:23:25;19.50;99.90
36548;DHT22;22551;52.206;4.856;2023-09-08T00:28:30;19.40;99.90
36548;DHT22;22551;52.206;4.856;2023-09-08T00:33:32;19.30;99.90
36548;DHT22;22551;52.206;4.856;2023-09-08T00:38:34;19.20;99.90
36548;DHT22;22551;52.206;4.856;2023-09-08T00:43:38;19.20;99.90
36548;DHT22;22551;52.206;4.856;2023-09-08T00:48:41;19.10;99.90
36548;DHT22;22551;52.206;4.856;2023-09-08T00:53:44;19.00;99.90
36548;DHT22;22551;52.206;4.856;2023-09-08T00:58:47;19.00;99.90
36548;DHT22;22551;52.206;4.856;2023-09-08T01:03:49;18.90;99.90
36548;DHT22;22551;52.206;4.856;2023-09-08T01:08:52;18.80;99.90
36548;DHT22;22551;52.206;4.856;2023-09-08T01:13:57;18.80;99.90
36548;DHT22;22551;52.206;4.856;2023-09-08T01:18:59;18.70;99.90
36548;DHT22;22551;52.206;4.856;2023-09-08T01:24:17;18.60;99.90
36548;DHT22;22551;52.206;4.856;2023-09-08T01:29:34;18.60;99.90
36548;DHT22;22551;52.206;4.856;2023-09-08T01:34:37;18.50;99.90
36548;DHT22;22551;52.206;4.856;2023-09-08T01:39:41;18.50;99.90
36548;DHT22;22551;52.206;4.856;2023-09-08T01:44:45;18.50;99.90
36548;DHT22;22551;52.206;4.856;2023-09-08T01:49:47;18.40;99.90
36548;DHT22;22551;52.206;4.856;2023-09-08T01:54:49;18.30;99.90
36548;DHT22;22551;52.206;4.856;2023-09-08T01:59:53;18.30;99.90
36548;DHT22;22551;52.206;4.856;2023-09-08T02:04:55;18.20;99.90
36548;DHT22;22551;52.206;4.856;2023-09-08T02:09:57;18.10;99.90
36548;DHT22;22551;52.206;4.856;2023-09-08T02:15:01;18.10;99.90
36548;DHT22;22551;52.206;4.856;2023-09-08T02:20:05;18.10;99.90
36548;DHT22;22551;52.206;4.856;2023-09-08T02:25:08;18.10;99.90
36548;DHT22;22551;52.206;4.856;2023-09-08T02:30:12;18.00;99.90
36548;DHT22;22551;52.206;4.856;2023-09-08T02:35:14;18.00;99.90
36548;DHT22;22551;52.206;4.856;2023-09-08T02:40:17;18.00;99.90
36548;DHT22;22551;52.206;4.856;2023-09-08T02:45:22;17.90;99.90
36548;DHT22;22551;52.206;4.856;2023-09-08T02:50:24;17.90;99.90
36548;DHT22;22551;52.206;4.856;2023-09-08T02:55:26;17.80;99.90
36548;DHT22;22551;52.206;4.856;2023-09-08T03:00:30;17.80;99.90
36548;DHT22;22551;52.206;4.856;2023-09-08T03:05:32;17.70;99.90
36548;DHT22;22551;52.206;4.856;2023-09-08T03:10:34;17.70;99.90
36548;DHT22;22551;52.206;4.856;2023-09-08T03:15:38;17.60;99.90
36548;DHT22;22551;52.206;4.856;2023-09-08T03:20:40;17.60;99.90
36548;DHT22;22551;52.206;4.856;2023-09-08T03:25:42;17.60;99.90
36548;DHT22;22551;52.206;4.856;2023-09-08T03:30:46;17.60;99.90
36548;DHT22;22551;52.206;4.856;2023-09-08T03:35:48;17.60;99.90
36548;DHT22;22551;52.206;4.856;2023-09-08T03:40:50;17.50;99.90
36548;DHT22;22551;52.206;4.856;2023-09-08T03:45:54;17.50;99.90
36548;DHT22;22551;52.206;4.856;2023-09-08T03:50:56;17.50;99.90
36548;DHT22;22551;52.206;4.856;2023-09-08T03:55:58;17.50;99.90
36548;DHT22;22551;52.206;4.856;2023-09-08T04:01:02;17.50;99.90
36548;DHT22;22551;52.206;4.856;2023-09-08T04:06:04;17.50;99.90
36548;DHT22;22551;52.206;4.856;2023-09-08T04:11:07;17.50;99.90
36548;DHT22;22551;52.206;4.856;2023-09-08T04:16:10;17.50;99.90
36548;DHT22;22551;52.206;4.856;2023-09-08T04:21:13;17.50;99.90
36548;DHT22;22551;52.206;4.856;2023-09-08T04:26:15;17.50;99.90
36548;DHT22;22551;52.206;4.856;2023-09-08T04:31:19;17.50;99.90
36548;DHT22;22551;52.206;4.856;2023-09-08T04:36:22;17.50;99.90
36548;DHT22;22551;52.206;4.856;2023-09-08T04:41:24;17.50;99.90
36548;DHT22;22551;52.206;4.856;2023-09-08T04:46:28;17.40;99.90
36548;DHT22;22551;52.206;4.856;2023-09-08T04:51:30;17.40;99.90
36548;DHT22;22551;52.206;4.856;2023-09-08T04:56:32;17.30;99.90
36548;DHT22;22551;52.206;4.856;2023-09-08T05:01:35;17.30;99.90
36548;DHT22;22551;52.206;4.856;2023-09-08T05:06:38;17.20;99.90
36548;DHT22;22551;52.206;4.856;2023-09-08T05:11:41;17.20;99.90
36548;DHT22;22551;52.206;4.856;2023-09-08T05:16:44;17.20;99.90
36548;DHT22;22551;52.206;4.856;2023-09-08T05:21:49;17.20;99.90
36548;DHT22;22551;52.206;4.856;2023-09-08T05:26:52;17.20;99.90
36548;DHT22;22551;52.206;4.856;2023-09-08T05:31:56;17.20;99.90
36548;DHT22;22551;52.206;4.856;2023-09-08T05:36:58;17.30;99.90
36548;DHT22;22551;52.206;4.856;2023-09-08T05:42:00;17.30;99.90
36548;DHT22;22551;52.206;4.856;2023-09-08T05:47:04;17.40;99.90
36548;DHT22;22551;52.206;4.856;2023-09-08T05:52:06;17.40;99.90
36548;DHT22;22551;52.206;4.856;2023-09-08T05:57:08;17.50;99.90
36548;DHT22;22551;52.206;4.856;2023-09-08T06:02:12;17.50;99.90
36548;DHT22;22551;52.206;4.856;2023-09-08T06:07:14;17.60;99.90
36548;DHT22;22551;52.206;4.856;2023-09-08T06:12:16;17.70;99.90
36548;DHT22;22551;52.206;4.856;2023-09-08T06:17:20;17.80;99.90
36548;DHT22;22551;52.206;4.856;2023-09-08T06:22:22;18.00;99.90
36548;DHT22;22551;52.206;4.856;2023-09-08T06:27:24;18.00;99.90
36548;DHT22;22551;52.206;4.856;2023-09-08T06:32:28;18.10;99.90
36548;DHT22;22551;52.206;4.856;2023-09-08T06:37:35;18.20;99.90
36548;DHT22;22551;52.206;4.856;2023-09-08T06:42:38;18.30;99.90
36548;DHT22;22551;52.206;4.856;2023-09-08T06:47:41;18.40;99.90
36548;DHT22;22551;52.206;4.856;2023-09-08T06:52:44;18.50;99.90
36548;DHT22;22551;52.206;4.856;2023-09-08T06:57:46;18.60;99.90
36548;DHT22;22551;52.206;4.856;2023-09-08T07:02:50;18.70;99.90
36548;DHT22;22551;52.206;4.856;2023-09-08T07:07:52;18.80;99.90
36548;DHT22;22551;52.206;4.856;2023-09-08T07:12:54;19.00;99.90
36548;DHT22;22551;52.206;4.856;2023-09-08T07:17:58;19.00;99.90
36548;DHT22;22551;52.206;4.856;2023-09-08T07:23:00;19.20;99.90
36548;DHT22;22551;52.206;4.856;2023-09-08T07:28:03;19.30;99.90
36548;DHT22;22551;52.206;4.856;2023-09-08T07:33:07;19.40;99.90
36548;DHT22;22551;52.206;4.856;2023-09-08T07:38:09;19.60;99.90
36548;DHT22;22551;52.206;4.856;2023-09-08T07:43:11;19.70;99.90
36548;DHT22;22551;52.206;4.856;2023-09-08T07:48:15;19.90;99.90
36548;DHT22;22551;52.206;4.856;2023-09-08T07:53:17;20.10;99.90
36548;DHT22;22551;52.206;4.856;2023-09-08T07:58:19;20.30;99.90
36548;DHT22;22551;52.206;4.856;2023-09-08T08:03:23;20.40;99.90
36548;DHT22;22551;52.206;4.856;2023-09-08T08:08:25;20.70;99.90
36548;DHT22;22551;52.206;4.856;2023-09-08T08:13:27;20.90;99.90
36548;DHT22;22551;52.206;4.856;2023-09-08T08:18:31;21.10;99.90
36548;DHT22;22551;52.206;4.856;2023-09-08T08:23:33;21.30;99.90
36548;DHT22;22551;52.206;4.856;2023-09-08T08:28:36;21.50;99.90
36548;DHT22;22551;52.206;4.856;2023-09-08T08:33:40;21.80;99.90
36548;DHT22;22551;52.206;4.856;2023-09-08T08:38:43;21.90;99.90
36548;DHT22;22551;52.206;4.856;2023-09-08T08:43:46;22.20;99.90
36548;DHT22;22551;52.206;4.856;2023-09-08T08:48:50;22.50;99.90
36548;DHT22;22551;52.206;4.856;2023-09-08T08:53:55;22.80;99.90
36548;DHT22;22551;52.206;4.856;2023-09-08T08:58:58;23.10;99.90
36548;DHT22;22551;52.206;4.856;2023-09-08T09:04:05;23.50;99.90
36548;DHT22;22551;52.206;4.856;2023-09-08T09:09:08;24.00;99.90
36548;DHT22;22551;52.206;4.856;2023-09-08T09:14:11;24.70;99.90
36548;DHT22;22551;52.206;4.856;2023-09-08T09:19:20;25.30;99.90
36548;DHT22;22551;52.206;4.856;2023-09-08T09:24:32;25.60;99.90
36548;DHT22;22551;52.206;4.856;2023-09-08T09:29:44;26.10;99.90
36548;DHT22;22551;52.206;4.856;2023-09-08T09:34:51;26.70;99.90
36548;DHT22;22551;52.206;4.856;2023-09-08T09:39:54;27.10;99.90
36548;DHT22;22551;52.206;4.856;2023-09-08T09:44:57;27.40;99.90
36548;DHT22;22551;52.206;4.856;2023-09-08T09:50:05;27.70;99.90
36548;DHT22;22551;52.206;4.856;2023-09-08T09:55:09;28.20;99.90
36548;DHT22;22551;52.206;4.856;2023-09-08T10:00:12;28.70;99.90
36548;DHT22;22551;52.206;4.856;2023-09-08T10:05:17;28.60;99.90
36548;DHT22;22551;52.206;4.856;2023-09-08T10:10:21;29.10;99.90
36548;DHT22;22551;52.206;4.856;2023-09-08T10:15:24;29.40;99.90
36548;DHT22;22551;52.206;4.856;2023-09-08T10:20:28;29.20;99.90
36548;DHT22;22551;52.206;4.856;2023-09-08T10:25:35;29.50;99.90
36548;DHT22;22551;52.206;4.856;2023-09-08T10:30:40;29.80;99.90
36548;DHT22;22551;52.206;4.856;2023-09-08T10:35:45;30.00;99.90
36548;DHT22;22551;52.206;4.856;2023-09-08T10:40:47;29.90;99.90
36548;DHT22;22551;52.206;4.856;2023-09-08T10:45:49;30.10;99.90
36548;DHT22;22551;52.206;4.856;2023-09-08T10:50:54;30.30;99.90
36548;DHT22;22551;52.206;4.856;2023-09-08T10:55:57;30.90;99.90
36548;DHT22;22551;52.206;4.856;2023-09-08T11:01:00;30.80;99.90
36548;DHT22;22551;52.206;4.856;2023-09-08T11:06:06;31.10;99.90
36548;DHT22;22551;52.206;4.856;2023-09-08T11:11:10;31.20;99.90
36548;DHT22;22551;52.206;4.856;2023-09-08T11:16:14;31.00;99.90
36548;DHT22;22551;52.206;4.856;2023-09-08T11:21:18;31.40;99.90
36548;DHT22;22551;52.206;4.856;2023-09-08T11:26:20;31.50;99.90
36548;DHT22;22551;52.206;4.856;2023-09-08T11:31:23;31.30;99.90
36548;DHT22;22551;52.206;4.856;2023-09-08T11:36:27;31.40;99.90
36548;DHT22;22551;52.206;4.856;2023-09-08T11:41:29;31.40;99.90
36548;DHT22;22551;52.206;4.856;2023-09-08T11:46:31;31.60;99.90
36548;DHT22;22551;52.206;4.856;2023-09-08T11:51:35;31.80;99.90
36548;DHT22;22551;52.206;4.856;2023-09-08T11:56:38;31.50;99.90
36548;DHT22;22551;52.206;4.856;2023-09-08T12:01:41;32.00;99.90
36548;DHT22;22551;52.206;4.856;2023-09-08T12:06:44;31.70;99.90
36548;DHT22;22551;52.206;4.856;2023-09-08T12:11:47;32.30;99.90
36548;DHT22;22551;52.206;4.856;2023-09-08T12:16:49;32.30;99.90
36548;DHT22;22551;52.206;4.856;2023-09-08T12:22:09;32.60;99.90
36548;DHT22;22551;52.206;4.856;2023-09-08T12:27:13;32.40;99.90
36548;DHT22;22551;52.206;4.856;2023-09-08T12:32:16;32.20;99.90
36548;DHT22;22551;52.206;4.856;2023-09-08T12:37:24;32.70;99.90
36548;DHT22;22551;52.206;4.856;2023-09-08T12:42:28;32.20;99.90
36548;DHT22;22551;52.206;4.856;2023-09-08T12:47:31;32.50;99.90
36548;DHT22;22551;52.206;4.856;2023-09-08T12:52:34;32.20;99.90
36548;DHT22;22551;52.206;4.856;2023-09-08T12:57:36;32.10;99.90
36548;DHT22;22551;52.206;4.856;2023-09-08T13:02:39;32.30;99.90
36548;DHT22;22551;52.206;4.856;2023-09-08T13:07:43;32.30;99.90
36548;DHT22;22551;52.206;4.856;2023-09-08T13:12:46;32.40;99.90
36548;DHT22;22551;52.206;4.856;2023-09-08T13:17:49;32.10;99.90
36548;DHT22;22551;52.206;4.856;2023-09-08T13:22:53;31.90;99.90
36548;DHT22;22551;52.206;4.856;2023-09-08T13:27:55;32.20;99.90
36548;DHT22;22551;52.206;4.856;2023-09-08T13:32:57;32.00;99.90
36548;DHT22;22551;52.206;4.856;2023-09-08T13:38:01;31.80;99.90
36548;DHT22;22551;52.206;4.856;2023-09-08T13:43:04;31.70;99.90
36548;DHT22;22551;52.206;4.856;2023-09-08T13:48:07;31.90;99.90
36548;DHT22;22551;52.206;4.856;2023-09-08T13:53:10;32.10;99.90
36548;DHT22;22551;52.206;4.856;2023-09-08T13:58:12;32.20;99.90
36548;DHT22;22551;52.206;4.856;2023-09-08T14:03:16;32.10;99.90
36548;DHT22;22551;52.206;4.856;2023-09-08T14:08:20;32.20;99.90
36548;DHT22;22551;52.206;4.856;2023-09-08T14:13:22;32.10;99.90
36548;DHT22;22551;52.206;4.856;2023-09-08T14:18:24;32.00;99.90
36548;DHT22;22551;52.206;4.856;2023-09-08T14:23:28;32.10;99.90
36548;DHT22;22551;52.206;4.856;2023-09-08T14:28:30;32.20;99.90
36548;DHT22;22551;52.206;4.856;2023-09-08T14:33:34;31.90;99.90
36548;DHT22;22551;52.206;4.856;2023-09-08T14:38:38;31.80;99.90
36548;DHT22;22551;52.206;4.856;2023-09-08T14:43:40;31.80;99.90
36548;DHT22;22551;52.206;4.856;2023-09-08T14:48:42;31.40;99.90
36548;DHT22;22551;52.206;4.856;2023-09-08T14:53:47;31.40;99.90
36548;DHT22;22551;52.206;4.856;2023-09-08T14:58:52;31.60;99.90
36548;DHT22;22551;52.206;4.856;2023-09-08T15:03:57;31.40;99.90
36548;DHT22;22551;52.206;4.856;2023-09-08T15:09:01;31.30;99.90
36548;DHT22;22551;52.206;4.856;2023-09-08T15:14:04;31.40;99.90
36548;DHT22;22551;52.206;4.856;2023-09-08T15:19:07;31.30;99.90
36548;DHT22;22551;52.206;4.856;2023-09-08T15:24:10;30.90;99.90
36548;DHT22;22551;52.206;4.856;2023-09-08T15:29:12;31.20;99.90
36548;DHT22;22551;52.206;4.856;2023-09-08T15:34:16;31.10;99.90
36548;DHT22;22551;52.206;4.856;2023-09-08T15:39:20;31.30;99.90
36548;DHT22;22551;52.206;4.856;2023-09-08T15:44:22;31.30;99.90
36548;DHT22;22551;52.206;4.856;2023-09-08T15:49:27;31.20;99.90
36548;DHT22;22551;52.206;4.856;2023-09-08T15:54:31;31.10;99.90
36548;DHT22;22551;52.206;4.856;2023-09-08T15:59:33;31.10;99.90
36548;DHT22;22551;52.206;4.856;2023-09-08T16:04:35;31.00;99.90
36548;DHT22;22551;52.206;4.856;2023-09-08T16:09:39;30.90;99.90
36548;DHT22;22551;52.206;4.856;2023-09-08T16:14:41;30.90;99.90
36548;DHT22;22551;52.206;4.856;2023-09-08T16:19:44;30.80;99.90
36548;DHT22;22551;52.206;4.856;2023-09-08T16:24:47;30.60;99.90
36548;DHT22;22551;52.206;4.856;2023-09-08T16:29:50;30.40;99.90
36548;DHT22;22551;52.206;4.856;2023-09-08T16:34:53;30.00;99.90
36548;DHT22;22551;52.206;4.856;2023-09-08T16:39:56;29.90;99.90
36548;DHT22;22551;52.206;4.856;2023-09-08T16:44:59;29.80;99.90
36548;DHT22;22551;52.206;4.856;2023-09-08T16:50:01;29.70;99.90
36548;DHT22;22551;52.206;4.856;2023-09-08T16:55:05;29.50;99.90
36548;DHT22;22551;52.206;4.856;2023-09-08T17:00:12;29.30;99.90
36548;DHT22;22551;52.206;4.856;2023-09-08T17:05:14;29.00;99.90
36548;DHT22;22551;52.206;4.856;2023-09-08T17:10:19;28.80;99.90
36548;DHT22;22551;52.206;4.856;2023-09-08T17:15:21;28.70;99.90
36548;DHT22;22551;52.206;4.856;2023-09-08T17:20:24;28.60;99.90
36548;DHT22;22551;52.206;4.856;2023-09-08T17:25:30;28.30;99.90
36548;DHT22;22551;52.206;4.856;2023-09-08T17:30:32;28.10;99.90
36548;DHT22;22551;52.206;4.856;2023-09-08T17:35:35;27.80;99.90
36548;DHT22;22551;52.206;4.856;2023-09-08T17:40:39;27.50;99.90
36548;DHT22;22551;52.206;4.856;2023-09-08T17:45:41;27.30;99.90
36548;DHT22;22551;52.206;4.856;2023-09-08T17:50:45;27.10;99.90
36548;DHT22;22551;52.206;4.856;2023-09-08T17:55:49;26.90;99.90
36548;DHT22;22551;52.206;4.856;2023-09-08T18:00:53;26.70;99.90
36548;DHT22;22551;52.206;4.856;2023-09-08T18:05:55;26.50;99.90
36548;DHT22;22551;52.206;4.856;2023-09-08T18:11:02;26.30;99.90
36548;DHT22;22551;52.206;4.856;2023-09-08T18:16:05;26.00;99.90
36548;DHT22;22551;52.206;4.856;2023-09-08T18:21:07;25.70;99.90
36548;DHT22;22551;52.206;4.856;2023-09-08T18:26:10;25.60;99.90
36548;DHT22;22551;52.206;4.856;2023-09-08T18:31:16;25.40;99.90
36548;DHT22;22551;52.206;4.856;2023-09-08T18:36:18;25.30;99.90
36548;DHT22;22551;52.206;4.856;2023-09-08T18:41:22;25.20;99.90
36548;DHT22;22551;52.206;4.856;2023-09-08T18:46:24;25.00;99.90
36548;DHT22;22551;52.206;4.856;2023-09-08T18:51:26;24.90;99.90
36548;DHT22;22551;52.206;4.856;2023-09-08T18:56:30;24.70;99.90
36548;DHT22;22551;52.206;4.856;2023-09-08T19:01:33;24.60;99.90
36548;DHT22;22551;52.206;4.856;2023-09-08T19:06:35;24.50;99.90
36548;DHT22;22551;52.206;4.856;2023-09-08T19:11:38;24.30;99.90
36548;DHT22;22551;52.206;4.856;2023-09-08T19:16:41;24.10;99.90
36548;DHT22;22551;52.206;4.856;2023-09-08T19:21:44;24.00;99.90
36548;DHT22;22551;52.206;4.856;2023-09-08T19:26:48;23.80;99.90
36548;DHT22;22551;52.206;4.856;2023-09-08T19:31:50;23.70;99.90
36548;DHT22;22551;52.206;4.856;2023-09-08T19:36:53;23.60;99.90
36548;DHT22;22551;52.206;4.856;2023-09-08T19:41:56;23.40;99.90
36548;DHT22;22551;52.206;4.856;2023-09-08T19:46:58;23.30;99.90
36548;DHT22;22551;52.206;4.856;2023-09-08T19:52:01;23.10;99.90
36548;DHT22;22551;52.206;4.856;2023-09-08T19:57:05;23.00;99.90
36548;DHT22;22551;52.206;4.856;2023-09-08T20:02:08;22.90;99.90
36548;DHT22;22551;52.206;4.856;2023-09-08T20:07:10;22.80;99.90
36548;DHT22;22551;52.206;4.856;2023-09-08T20:12:15;22.60;99.90
36548;DHT22;22551;52.206;4.856;2023-09-08T20:17:17;22.50;99.90
36548;DHT22;22551;52.206;4.856;2023-09-08T20:22:19;22.40;99.90
36548;DHT22;22551;52.206;4.856;2023-09-08T20:27:24;22.30;99.90
36548;DHT22;22551;52.206;4.856;2023-09-08T20:32:29;22.20;99.90
36548;DHT22;22551;52.206;4.856;2023-09-08T20:37:32;22.20;99.90
36548;DHT22;22551;52.206;4.856;2023-09-08T20:42:35;22.10;99.90
36548;DHT22;22551;52.206;4.856;2023-09-08T20:47:37;22.00;99.90
36548;DHT22;22551;52.206;4.856;2023-09-08T20:52:40;21.90;99.90
36548;DHT22;22551;52.206;4.856;2023-09-08T20:57:43;21.80;99.90
36548;DHT22;22551;52.206;4.856;2023-09-08T21:02:46;21.80;99.90
36548;DHT22;22551;52.206;4.856;2023-09-08T21:07:48;21.70;99.90
36548;DHT22;22551;52.206;4.856;2023-09-08T21:12:51;21.60;99.90
36548;DHT22;22551;52.206;4.856;2023-09-08T21:17:53;21.60;99.90
36548;DHT22;22551;52.206;4.856;2023-09-08T21:22:56;21.50;99.90
36548;DHT22;22551;52.206;4.856;2023-09-08T21:28:02;21.40;99.90
36548;DHT22;22551;52.206;4.856;2023-09-08T21:33:06;21.40;99.90
36548;DHT22;22551;52.206;4.856;2023-09-08T21:38:08;21.30;99.90
36548;DHT22;22551;52.206;4.856;2023-09-08T21:43:11;21.20;99.90
36548;DHT22;22551;52.206;4.856;2023-09-08T21:48:14;21.20;99.90
36548;DHT22;22551;52.206;4.856;2023-09-08T21:53:16;21.10;99.90
36548;DHT22;22551;52.206;4.856;2023-09-08T21:58:19;21.10;99.90
36548;DHT22;22551;52.206;4.856;2023-09-08T22:03:22;21.00;99.90
36548;DHT22;22551;52.206;4.856;2023-09-08T22:08:24;20.90;99.90
36548;DHT22;22551;52.206;4.856;2023-09-08T22:13:28;20.90;99.90
36548;DHT22;22551;52.206;4.856;2023-09-08T22:18:30;20.80;99.90
36548;DHT22;22551;52.206;4.856;2023-09-08T22:23:33;20.70;99.90
36548;DHT22;22551;52.206;4.856;2023-09-08T22:28:36;20.70;99.90
36548;DHT22;22551;52.206;4.856;2023-09-08T22:33:39;20.60;99.90
36548;DHT22;22551;52.206;4.856;2023-09-08T22:38:41;20.60;99.90
36548;DHT22;22551;52.206;4.856;2023-09-08T22:43:45;20.50;99.90
36548;DHT22;22551;52.206;4.856;2023-09-08T22:48:47;20.50;99.90
36548;DHT22;22551;52.206;4.856;2023-09-08T22:53:49;20.40;99.90
36548;DHT22;22551;52.206;4.856;2023-09-08T22:58:54;20.30;99.90
36548;DHT22;22551;52.206;4.856;2023-09-08T23:03:56;20.20;99.90
36548;DHT22;22551;52.206;4.856;2023-09-08T23:08:58;20.20;99.90
36548;DHT22;22551;52.206;4.856;2023-09-08T23:14:02;20.10;99.90
36548;DHT22;22551;52.206;4.856;2023-09-08T23:19:04;20.10;99.90
36548;DHT22;22551;52.206;4.856;2023-09-08T23:24:07;20.00;99.90
36548;DHT22;22551;52.206;4.856;2023-09-08T23:29:11;20.00;99.90
36548;DHT22;22551;52.206;4.856;2023-09-08T23:34:13;19.90;99.90
36548;DHT22;22551;52.206;4.856;2023-09-08T23:39:15;19.90;99.90
36548;DHT22;22551;52.206;4.856;2023-09-08T23:44:20;19.80;99.90
36548;DHT22;22551;52.206;4.856;2023-09-08T23:49:23;19.80;99.90
36548;DHT22;22551;52.206;4.856;2023-09-08T23:54:25;19.70;99.90
36548;DHT22;22551;52.206;4.856;2023-09-08T23:59:29;19.60;99.90
